Latest Coastal Weather Observations for Gabo Island

IDT60701

Issued at 7:32 pm EST Wednesday 6 May 2026 (issued every 10 minutes, with the page automatically refreshed every 10 minutes)

About coastal observations | Map of coastal stations | Coastal observations for TAS | Marine services | Other Formats
Station Details ID: 084016 Name: GABO ISLAND LIGHTHOUSE Lat: -37.57 Lon: 149.92 Height: 15.0 m
Data from the previous 72 hours. | See also: Recent months at Gabo Island
Date/Time
EST
Wind Sea
Height
m
Swell Vis
km
Cloud Weather Temp
°C
Press
MSL
hPa
Rain since
9am
mm
Dir  Spd
kts
Gust
kts
Height
m
Period
s
Dir
06/07:30pm SW 11 13 - - - - - - - 15.9 1013.9 0.0
06/07:00pm WNW 6 7 - - - - - - - 15.0 1014.2 0.0
06/06:30pm WNW 5 6 - - - - - - - 14.4 1014.3 0.0
06/06:00pm NNW 5 6 - - - - - - - 14.3 1014.2 0.0
06/05:30pm NNE 9 11 - - - - - - - 16.0 1014.1 0.0
06/05:00pm NNE 13 15 - - - - - - - 16.2 1014.2 0.0
06/04:30pm NNE 11 15 - - - - - - - 16.6 1014.4 0.0
06/04:00pm NE 10 12 - - - - - - - 16.8 1014.7 0.0
06/03:30pm E 9 11 - - - - - - - 16.7 1014.9 0.0
06/03:00pm E 7 10 2 1.3 9 E 40 Mostly clear Fine 16.7 1015.5 0.0
06/02:30pm E 6 8 - - - - - - - 16.9 1016.0 0.0
06/02:00pm E 5 7 - - - - - - - 17.0 1016.2 0.0
06/01:30pm SE 5 6 - - - - - - - 16.9 1016.5 0.0
06/01:00pm SSE 6 7 - - - - - - - 16.6 1017.2 0.0
06/12:30pm SSW 7 8 - - - - - - - 16.8 1017.7 0.0
06/12:00pm SW 6 7 - - - - - - - 16.5 1018.4 0.0
06/11:30am SW 5 7 - - - - - - - 16.2 1019.1 0.0
06/11:00am WSW 6 9 - - - - - - - 16.4 1019.6 0.0
06/10:30am WNW 7 9 - - - - - - - 16.5 1020.0 0.0
06/10:00am WNW 7 9 - - - - - - - 16.0 1020.5 0.0
06/09:30am WNW 8 11 - - - - - - - 15.5 1020.6 0.0
06/09:00am WNW 8 11 2 1.4 9 E 40 Mostly clear Fine 14.8 1020.8 0.2
06/08:30am WNW 10 12 - - - - - - - 13.9 1020.8 0.2
06/08:00am WNW 9 13 - - - - - - - 13.1 1020.7 0.2
06/07:30am WNW 10 13 - - - - - - - 12.6 1020.5 0.2
06/07:00am WNW 9 11 - - - - - - - 12.3 1020.5 0.2
06/06:30am WNW 10 12 - - - - - - - 12.0 1020.5 0.2
06/06:00am W 11 13 - - - - - - - 12.2 1020.5 0.2
06/05:30am W 9 12 - - - - - - - 12.2 1020.4 0.2
06/05:00am WNW 10 11 - - - - - - - 12.3 1020.5 0.2
06/04:30am WNW 10 13 - - - - - - - 12.6 1020.7 0.2
06/04:00am WNW 9 11 - - - - - - - 12.8 1020.7 0.2
06/03:30am W 10 14 - - - - - - - 12.9 1020.5 0.2
06/03:00am W 12 16 2 2.2 8 SE 25 Mostly clear Fine 13.5 1020.8 0.2
06/02:30am W 14 17 - - - - - - - 14.0 1020.8 0.2
06/02:00am WSW 17 20 - - - - - - - 14.5 1020.9 0.2
06/01:30am WSW 16 21 - - - - - - - 14.5 1021.2 0.2
06/01:00am WSW 18 21 - - - - - - - 14.8 1021.3 0.2
06/12:30am WSW 19 23 - - - - - - - 14.9 1021.5 0.2
06/12:00am WSW 19 22 - - - - - - - 14.9 1021.5 0.2
 
Date/Time
EST
Wind Sea
Height
m
Swell Vis
km
Cloud Weather Temp
°C
Press
MSL
hPa
Rain since
9am
mm
Dir  Spd
kts
Gust
kts
Height
m
Period
s
Dir
05/11:30pm WSW 18 21 - - - - - - - 14.7 1021.6 0.2
05/11:00pm WSW 16 20 - - - - - - - 14.8 1021.7 0.2
05/10:30pm WSW 16 22 - - - - - - - 14.8 1022.0 0.2
05/10:00pm WSW 18 24 - - - - - - - 14.8 1022.2 0.2
05/09:30pm WSW 15 19 - - - - - - - 14.5 1022.1 0.2
05/09:00pm SW 17 23 2 2.1 8 E 20 Mostly cloudy Fine 15.1 1021.9 0.0
05/08:30pm WSW 15 19 - - - - - - - 15.4 1021.8 0.0
05/08:00pm WSW 16 20 - - - - - - - 15.3 1021.5 0.0
05/07:30pm WSW 17 22 - - - - - - - 15.8 1021.0 0.0
05/07:00pm WSW 19 24 - - - - - - - 16.0 1020.6 0.0
05/06:30pm WSW 20 24 - - - - - - - 16.0 1020.2 0.0
05/06:00pm WSW 23 29 - - - - - - - 16.3 1019.4 0.0
05/05:30pm WSW 26 32 - - - - - - - 16.6 1019.0 0.0
05/05:00pm SW 26 31 - - - - - - - 16.7 1018.5 0.0
05/04:30pm SW 24 29 - - - - - - - 17.1 1018.1 0.0
05/04:00pm SW 22 27 - - - - - - - 17.5 1018.0 0.0
05/03:30pm SW 24 27 - - - - - - - 17.7 1017.7 0.0
05/03:00pm WSW 26 31 2 2.0 8 E 35 Mostly clear Fine 17.9 1017.3 0.0
05/02:30pm WSW 25 32 - - - - - - - 18.2 1016.9 0.0
05/02:00pm WSW 25 30 - - - - - - - 18.5 1016.6 0.0
05/01:30pm WSW 25 29 - - - - - - - 18.7 1016.2 0.0
05/01:00pm WSW 23 30 - - - - - - - 18.9 1016.0 0.0
05/12:30pm WSW 23 28 - - - - - - - 18.4 1016.0 0.0
05/12:00pm WSW 21 25 - - - - - - - 19.2 1016.4 0.0
05/11:30am WSW 18 22 - - - - - - - 19.0 1016.5 0.0
05/11:00am WSW 18 24 - - - - - - - 18.7 1016.5 0.0
05/10:30am W 13 17 - - - - - - - 18.5 1016.5 0.0
05/10:00am W 12 14 - - - - - - - 17.7 1016.4 0.0
05/09:30am W 13 15 - - - - - - - 17.3 1016.2 0.0
05/09:00am WNW 9 12 2 1.5 10 E 40 Mostly clear Fine 16.9 1016.2 0.0
05/08:30am NW 7 11 - - - - - - - 16.4 1016.1 0.0
05/08:00am NW 7 11 - - - - - - - 15.6 1015.5 0.0
05/07:30am NW 6 8 - - - - - - - 14.5 1015.2 0.0
05/07:00am NW 6 8 - - - - - - - 13.8 1014.8 0.0
05/06:30am NNW 6 8 - - - - - - - 13.4 1014.4 0.0
05/06:00am NW 7 9 - - - - - - - 14.1 1013.8 0.0
05/05:30am N 7 8 - - - - - - - 13.3 1013.4 0.0
05/05:00am NNW 7 8 - - - - - - - 13.7 1013.3 0.0
05/04:30am NNW 7 8 - - - - - - - 14.0 1012.9 0.0
05/04:00am NNW 8 9 - - - - - - - 13.3 1012.7 0.0
05/03:30am NW 5 7 - - - - - - - 13.8 1012.5 0.0
05/03:00am NW 5 6 2 2.0 10 E 25 Mostly clear Fine 13.5 1012.5 0.0
05/02:30am NNW 6 7 - - - - - - - 13.9 1012.6 0.0
05/02:00am NNW 6 8 - - - - - - - 14.1 1012.6 0.0
05/01:30am NNW 7 9 - - - - - - - 14.3 1012.7 0.0
05/01:00am NNW 8 10 - - - - - - - 14.6 1012.9 0.0
05/12:30am NNW 9 12 - - - - - - - 14.7 1013.0 0.0
05/12:00am NW 7 10 - - - - - - - 14.6 1013.0 0.0
 
Date/Time
EST
Wind Sea
Height
m
Swell Vis
km
Cloud Weather Temp
°C
Press
MSL
hPa
Rain since
9am
mm
Dir  Spd
kts
Gust
kts
Height
m
Period
s
Dir
04/11:30pm W 4 5 - - - - - - - 14.1 1013.1 0.0
04/11:00pm NW 5 7 - - - - - - - 14.4 1013.3 0.0
04/10:30pm NW 6 8 - - - - - - - 14.7 1013.7 0.0
04/10:00pm NW 6 7 - - - - - - - 14.8 1013.7 0.0
04/09:30pm NW 8 9 - - - - - - - 15.2 1013.7 0.0
04/09:00pm NNW 9 11 2 2.0 9 E 25 Mostly clear Fine 14.6 1013.5 0.0
04/08:30pm NW 9 10 - - - - - - - 14.7 1013.3 0.0
04/08:00pm NW 7 8 - - - - - - - 14.5 1013.0 0.0
04/07:30pm NW 7 9 - - - - - - - 14.9 1012.7 0.0
04/07:00pm NW 7 8 - - - - - - - 15.1 1012.7 0.0
04/06:30pm NW 6 7 - - - - - - - 15.0 1012.4 0.0
04/06:00pm W 9 11 - - - - - - - 16.2 1011.9 0.0
04/05:30pm SSW 10 11 - - - - - - - 16.7 1011.8 0.0
04/05:00pm WSW 12 16 - - - - - - - 16.9 1012.0 0.0
04/04:30pm WSW 15 18 - - - - - - - 17.1 1011.7 0.0
04/04:00pm WSW 17 21 - - - - - - - 18.0 1011.4 0.0
04/03:30pm SW 16 19 - - - - - - - 17.8 1011.3 0.0
04/03:00pm SW 15 19 2 2.0 9 E 25 Mostly cloudy Fine 18.1 1011.0 0.0
04/02:30pm SW 15 19 - - - - - - - 18.0 1010.9 0.0
04/02:00pm SSW 18 23 - - - - - - - 18.1 1010.5 0.0
04/01:30pm SSW 18 22 - - - - - - - 18.2 1010.6 0.0
04/01:00pm SSW 15 18 - - - - - - - 18.4 1010.9 0.0
04/12:30pm SW 13 16 - - - - - - - 19.0 1011.3 0.0
04/12:00pm SSW 15 18 - - - - - - - 18.5 1011.5 0.0
04/11:30am SSW 10 14 - - - - - - - 18.7 1012.0 0.0
04/11:00am SSW 4 4 - - - - - - - 19.5 1012.5 0.0
04/10:30am CALM 0 3 - - - - - - - 19.5 1012.9 0.0
04/10:00am N 5 7 - - - - - - - 20.1 1012.9 0.0
04/09:30am NNE 7 10 - - - - - - - 19.8 1012.9 0.0
04/09:00am NNE 5 7 2 2.0 9 E 20 Mostly cloudy Fine 19.2 1012.9 4.2
04/08:30am NNE 9 11 - - - - - - - 19.2 1012.9 4.2
04/08:00am NNE 11 13 - - - - - - - 18.7 1012.5 4.2
04/07:30am NE 12 15 - - - - - - - 18.1 1012.3 4.2
04/07:00am NNE 11 13 - - - - - - - 17.5 1012.0 4.2
04/06:30am NE 11 13 - - - - - - - 17.3 1011.9 4.2
04/06:00am NNE 10 11 - - - - - - - 17.4 1012.3 4.0
04/05:30am NNE 10 11 - - - - - - - 17.5 1012.3 4.0
04/05:00am ENE 11 13 - - - - - - - 17.9 1012.2 3.8
04/04:30am E 5 7 - - - - - - - 17.8 1012.6 3.6
04/04:00am ESE 4 6 - - - - - - - 17.8 1013.1 3.0
04/03:30am W 5 6 - - - - - - - 17.8 1013.7 2.0
04/03:00am WSW 7 8 2 2.0 9 NE 20 Cloudy Rain 18.0 1013.7 1.2
04/02:30am WSW 7 10 - - - - - - - 18.3 1014.0 0.8
04/02:00am NW 7 9 - - - - - - - 18.7 1013.7 0.0
04/01:30am N 9 12 - - - - - - - 18.7 1013.5 0.0
04/01:00am NNE 15 17 - - - - - - - 19.1 1013.5 0.0
04/12:30am NNE 15 18 - - - - - - - 19.2 1013.5 0.0
04/12:00am NNE 20 26 - - - - - - - 19.9 1013.5 0.0
 
Date/Time
EST
Wind Sea
Height
m
Swell Vis
km
Cloud Weather Temp
°C
Press
MSL
hPa
Rain since
9am
mm
Dir  Spd
kts
Gust
kts
Height
m
Period
s
Dir
03/11:30pm NNE 23 30 - - - - - - - 20.1 1013.5 0.0
03/11:21pm NNE 24 34 - - - - - - - 20.2 1013.5 0.0
03/11:00pm NNE 25 32 - - - - - - - 20.3 1013.6 0.0
03/10:52pm NNE 22 32 - - - - - - - 20.2 1013.6 0.0
03/10:30pm NNE 22 28 - - - - - - - 20.2 1013.8 0.0
03/10:00pm NNE 25 31 - - - - - - - 20.3 1014.3 0.0
03/09:30pm NNE 25 32 - - - - - - - 20.4 1014.6 0.0
03/09:00pm NNE 28 35 2 2.5 9 NE 25 Cloudy Fine 20.4 1014.4 0.0
03/08:50pm NNE 25 35 - - - - - - - 20.4 1014.4 0.0
03/08:30pm NNE 25 30 - - - - - - - 20.4 1014.5 0.0
03/08:07pm NNE 25 35 - - - - - - - 20.4 1014.2 0.0
03/08:00pm NNE 26 35 - - - - - - - 20.6 1014.2 0.0
03/07:42pm NNE 26 36 - - - - - - - 20.4 1014.2 0.0

Other formats

Comma delimited format used in spreadsheet applications
http://www.bom.gov.au/fwo/IDT60701/IDT60701.94933.axf

JavaScript Object Notation format (JSON) in row-major order
http://www.bom.gov.au/fwo/IDT60701/IDT60701.94933.json

Data quality

Most of these data are generated automatically and are frequently updated. Quality checks on data are not normally performed. It is possible for incorrect values to appear. Refer to information at About Latest Weather Observations and please check the disclaimer before using these data.